sensor_id;sensor_type;location;lat;lon;timestamp;P1;durP1;ratioP1;P2;durP2;ratioP2
63112;SDS011;49206;48.020;21.378;2022-10-31T00:00:29;72.47;;;28.95;;
63112;SDS011;49206;48.020;21.378;2022-10-31T00:01:35;70.60;;;27.92;;
63112;SDS011;49206;48.020;21.378;2022-10-31T00:02:39;72.65;;;29.25;;
63112;SDS011;49206;48.020;21.378;2022-10-31T00:03:42;71.05;;;28.48;;
63112;SDS011;49206;48.020;21.378;2022-10-31T00:04:44;65.60;;;27.90;;
63112;SDS011;49206;48.020;21.378;2022-10-31T00:05:47;66.93;;;27.60;;
63112;SDS011;49206;48.020;21.378;2022-10-31T00:06:51;74.88;;;29.35;;
63112;SDS011;49206;48.020;21.378;2022-10-31T00:07:54;70.28;;;28.88;;
63112;SDS011;49206;48.020;21.378;2022-10-31T00:08:57;67.53;;;28.67;;
63112;SDS011;49206;48.020;21.378;2022-10-31T00:10:01;72.05;;;29.23;;
63112;SDS011;49206;48.020;21.378;2022-10-31T00:11:07;64.72;;;27.88;;
63112;SDS011;49206;48.020;21.378;2022-10-31T00:12:10;69.78;;;28.27;;
63112;SDS011;49206;48.020;21.378;2022-10-31T00:13:13;71.30;;;28.02;;
63112;SDS011;49206;48.020;21.378;2022-10-31T00:14:16;61.88;;;25.90;;
63112;SDS011;49206;48.020;21.378;2022-10-31T00:15:19;63.55;;;28.45;;
63112;SDS011;49206;48.020;21.378;2022-10-31T00:16:22;64.00;;;27.67;;
63112;SDS011;49206;48.020;21.378;2022-10-31T00:17:26;60.10;;;26.25;;
63112;SDS011;49206;48.020;21.378;2022-10-31T00:18:29;69.22;;;27.58;;
63112;SDS011;49206;48.020;21.378;2022-10-31T00:19:32;62.40;;;25.55;;
63112;SDS011;49206;48.020;21.378;2022-10-31T00:20:34;74.85;;;30.08;;
63112;SDS011;49206;48.020;21.378;2022-10-31T00:21:36;68.72;;;27.05;;
63112;SDS011;49206;48.020;21.378;2022-10-31T00:22:39;57.78;;;25.25;;
63112;SDS011;49206;48.020;21.378;2022-10-31T00:23:41;64.85;;;25.98;;
63112;SDS011;49206;48.020;21.378;2022-10-31T00:24:44;72.75;;;26.77;;
63112;SDS011;49206;48.020;21.378;2022-10-31T00:25:46;68.60;;;26.58;;
63112;SDS011;49206;48.020;21.378;2022-10-31T00:26:49;66.60;;;26.35;;
63112;SDS011;49206;48.020;21.378;2022-10-31T00:27:51;73.35;;;27.63;;
63112;SDS011;49206;48.020;21.378;2022-10-31T00:28:54;62.00;;;25.92;;
63112;SDS011;49206;48.020;21.378;2022-10-31T00:29:56;63.45;;;27.02;;
63112;SDS011;49206;48.020;21.378;2022-10-31T00:31:00;58.10;;;24.90;;
63112;SDS011;49206;48.020;21.378;2022-10-31T00:32:06;64.85;;;26.00;;
63112;SDS011;49206;48.020;21.378;2022-10-31T00:33:09;58.00;;;23.85;;
63112;SDS011;49206;48.020;21.378;2022-10-31T00:34:12;60.65;;;24.95;;
63112;SDS011;49206;48.020;21.378;2022-10-31T00:35:14;61.38;;;24.73;;
63112;SDS011;49206;48.020;21.378;2022-10-31T00:36:19;58.70;;;24.92;;
63112;SDS011;49206;48.020;21.378;2022-10-31T00:37:22;64.63;;;25.38;;
63112;SDS011;49206;48.020;21.378;2022-10-31T00:38:24;56.47;;;24.60;;
63112;SDS011;49206;48.020;21.378;2022-10-31T00:39:27;56.72;;;24.95;;
63112;SDS011;49206;48.020;21.378;2022-10-31T00:40:29;56.90;;;24.83;;
63112;SDS011;49206;48.020;21.378;2022-10-31T00:41:32;59.17;;;23.65;;
63112;SDS011;49206;48.020;21.378;2022-10-31T00:42:34;58.83;;;24.25;;
63112;SDS011;49206;48.020;21.378;2022-10-31T00:43:36;62.33;;;24.23;;
63112;SDS011;49206;48.020;21.378;2022-10-31T00:44:39;61.03;;;24.02;;
63112;SDS011;49206;48.020;21.378;2022-10-31T00:45:41;56.05;;;24.27;;
63112;SDS011;49206;48.020;21.378;2022-10-31T00:46:44;52.28;;;23.67;;
63112;SDS011;49206;48.020;21.378;2022-10-31T00:47:47;54.08;;;23.98;;
63112;SDS011;49206;48.020;21.378;2022-10-31T00:48:49;58.00;;;24.65;;
63112;SDS011;49206;48.020;21.378;2022-10-31T00:49:51;56.28;;;24.00;;
63112;SDS011;49206;48.020;21.378;2022-10-31T00:50:54;51.03;;;23.73;;
63112;SDS011;49206;48.020;21.378;2022-10-31T00:51:57;51.22;;;24.00;;
63112;SDS011;49206;48.020;21.378;2022-10-31T00:52:59;55.08;;;23.77;;
63112;SDS011;49206;48.020;21.378;2022-10-31T00:54:02;60.10;;;24.80;;
63112;SDS011;49206;48.020;21.378;2022-10-31T00:55:04;53.08;;;22.33;;
63112;SDS011;49206;48.020;21.378;2022-10-31T00:56:07;52.63;;;23.35;;
63112;SDS011;49206;48.020;21.378;2022-10-31T00:57:10;49.83;;;23.02;;
63112;SDS011;49206;48.020;21.378;2022-10-31T00:58:12;50.28;;;23.08;;
63112;SDS011;49206;48.020;21.378;2022-10-31T00:59:20;54.78;;;22.38;;
63112;SDS011;49206;48.020;21.378;2022-10-31T01:00:22;54.50;;;21.02;;
63112;SDS011;49206;48.020;21.378;2022-10-31T01:01:25;50.85;;;23.77;;
63112;SDS011;49206;48.020;21.378;2022-10-31T01:02:27;48.40;;;21.70;;
63112;SDS011;49206;48.020;21.378;2022-10-31T01:03:31;56.70;;;22.77;;
63112;SDS011;49206;48.020;21.378;2022-10-31T01:04:34;49.55;;;21.80;;
63112;SDS011;49206;48.020;21.378;2022-10-31T01:05:37;54.28;;;22.55;;
63112;SDS011;49206;48.020;21.378;2022-10-31T01:06:39;52.47;;;22.17;;
63112;SDS011;49206;48.020;21.378;2022-10-31T01:07:42;51.97;;;22.10;;
63112;SDS011;49206;48.020;21.378;2022-10-31T01:08:45;52.25;;;22.35;;
63112;SDS011;49206;48.020;21.378;2022-10-31T01:09:49;45.88;;;20.98;;
63112;SDS011;49206;48.020;21.378;2022-10-31T01:10:58;45.45;;;21.42;;
63112;SDS011;49206;48.020;21.378;2022-10-31T01:12:02;51.42;;;22.58;;
63112;SDS011;49206;48.020;21.378;2022-10-31T01:13:04;51.72;;;22.88;;
63112;SDS011;49206;48.020;21.378;2022-10-31T01:14:08;55.42;;;22.40;;
63112;SDS011;49206;48.020;21.378;2022-10-31T01:16:16;48.90;;;21.92;;
63112;SDS011;49206;48.020;21.378;2022-10-31T01:17:20;55.92;;;22.48;;
63112;SDS011;49206;48.020;21.378;2022-10-31T01:18:22;56.88;;;23.48;;
63112;SDS011;49206;48.020;21.378;2022-10-31T01:19:25;50.88;;;21.58;;
63112;SDS011;49206;48.020;21.378;2022-10-31T01:20:30;52.10;;;22.80;;
63112;SDS011;49206;48.020;21.378;2022-10-31T01:21:35;53.92;;;22.65;;
63112;SDS011;49206;48.020;21.378;2022-10-31T01:22:37;47.92;;;20.85;;
63112;SDS011;49206;48.020;21.378;2022-10-31T01:23:39;48.88;;;21.05;;
63112;SDS011;49206;48.020;21.378;2022-10-31T01:24:42;49.80;;;20.85;;
63112;SDS011;49206;48.020;21.378;2022-10-31T01:25:44;50.20;;;21.63;;
63112;SDS011;49206;48.020;21.378;2022-10-31T01:26:46;51.22;;;21.92;;
63112;SDS011;49206;48.020;21.378;2022-10-31T01:27:49;47.75;;;20.73;;
63112;SDS011;49206;48.020;21.378;2022-10-31T01:28:53;50.33;;;21.65;;
63112;SDS011;49206;48.020;21.378;2022-10-31T01:29:58;54.08;;;22.83;;
63112;SDS011;49206;48.020;21.378;2022-10-31T01:31:01;53.08;;;21.50;;
63112;SDS011;49206;48.020;21.378;2022-10-31T01:32:04;52.53;;;21.20;;
63112;SDS011;49206;48.020;21.378;2022-10-31T01:33:06;46.13;;;21.58;;
63112;SDS011;49206;48.020;21.378;2022-10-31T01:34:12;50.08;;;20.95;;
63112;SDS011;49206;48.020;21.378;2022-10-31T01:35:16;54.75;;;21.35;;
63112;SDS011;49206;48.020;21.378;2022-10-31T01:37:25;48.20;;;20.55;;
63112;SDS011;49206;48.020;21.378;2022-10-31T01:38:28;52.63;;;21.33;;
63112;SDS011;49206;48.020;21.378;2022-10-31T01:39:30;50.35;;;21.67;;
63112;SDS011;49206;48.020;21.378;2022-10-31T01:40:33;48.97;;;21.40;;
63112;SDS011;49206;48.020;21.378;2022-10-31T01:41:37;51.13;;;20.90;;
63112;SDS011;49206;48.020;21.378;2022-10-31T01:42:50;52.63;;;20.30;;
63112;SDS011;49206;48.020;21.378;2022-10-31T01:43:54;49.35;;;21.58;;
63112;SDS011;49206;48.020;21.378;2022-10-31T01:45:00;45.83;;;19.27;;
63112;SDS011;49206;48.020;21.378;2022-10-31T01:46:03;41.03;;;19.30;;
63112;SDS011;49206;48.020;21.378;2022-10-31T01:47:08;43.45;;;19.80;;
63112;SDS011;49206;48.020;21.378;2022-10-31T01:48:16;47.05;;;18.92;;
63112;SDS011;49206;48.020;21.378;2022-10-31T01:49:34;41.55;;;19.65;;
63112;SDS011;49206;48.020;21.378;2022-10-31T01:50:37;39.17;;;17.60;;
63112;SDS011;49206;48.020;21.378;2022-10-31T01:51:42;41.67;;;19.92;;
63112;SDS011;49206;48.020;21.378;2022-10-31T01:52:49;42.70;;;18.58;;
63112;SDS011;49206;48.020;21.378;2022-10-31T01:53:54;46.38;;;19.55;;
63112;SDS011;49206;48.020;21.378;2022-10-31T01:55:04;47.95;;;20.58;;
63112;SDS011;49206;48.020;21.378;2022-10-31T01:56:09;47.90;;;19.42;;
63112;SDS011;49206;48.020;21.378;2022-10-31T01:57:12;41.42;;;18.83;;
63112;SDS011;49206;48.020;21.378;2022-10-31T01:58:19;43.50;;;18.55;;
63112;SDS011;49206;48.020;21.378;2022-10-31T01:59:26;38.22;;;17.55;;
63112;SDS011;49206;48.020;21.378;2022-10-31T02:00:31;40.08;;;19.33;;
63112;SDS011;49206;48.020;21.378;2022-10-31T02:01:34;41.72;;;17.83;;
63112;SDS011;49206;48.020;21.378;2022-10-31T02:02:38;41.63;;;17.08;;
63112;SDS011;49206;48.020;21.378;2022-10-31T02:03:41;38.28;;;18.23;;
63112;SDS011;49206;48.020;21.378;2022-10-31T02:04:43;49.92;;;18.70;;
63112;SDS011;49206;48.020;21.378;2022-10-31T02:05:50;41.58;;;19.38;;
63112;SDS011;49206;48.020;21.378;2022-10-31T02:06:58;42.55;;;19.15;;
63112;SDS011;49206;48.020;21.378;2022-10-31T02:08:06;42.67;;;18.55;;
63112;SDS011;49206;48.020;21.378;2022-10-31T02:09:13;46.67;;;18.75;;
63112;SDS011;49206;48.020;21.378;2022-10-31T02:10:16;42.08;;;17.92;;
63112;SDS011;49206;48.020;21.378;2022-10-31T02:11:23;42.42;;;18.38;;
63112;SDS011;49206;48.020;21.378;2022-10-31T02:13:33;41.35;;;16.55;;
63112;SDS011;49206;48.020;21.378;2022-10-31T02:14:39;41.45;;;17.23;;
63112;SDS011;49206;48.020;21.378;2022-10-31T02:15:42;44.25;;;19.75;;
63112;SDS011;49206;48.020;21.378;2022-10-31T02:16:47;35.33;;;16.73;;
63112;SDS011;49206;48.020;21.378;2022-10-31T02:17:49;37.83;;;17.65;;
63112;SDS011;49206;48.020;21.378;2022-10-31T02:18:52;39.13;;;18.48;;
63112;SDS011;49206;48.020;21.378;2022-10-31T02:30:04;38.75;;;16.95;;
63112;SDS011;49206;48.020;21.378;2022-10-31T02:35:13;39.50;;;17.88;;
63112;SDS011;49206;48.020;21.378;2022-10-31T02:36:24;45.33;;;18.20;;
63112;SDS011;49206;48.020;21.378;2022-10-31T02:39:26;35.00;;;16.27;;
63112;SDS011;49206;48.020;21.378;2022-10-31T02:40:44;40.03;;;17.20;;
63112;SDS011;49206;48.020;21.378;2022-10-31T02:43:32;37.83;;;17.40;;
63112;SDS011;49206;48.020;21.378;2022-10-31T02:44:53;34.17;;;16.60;;
63112;SDS011;49206;48.020;21.378;2022-10-31T02:46:03;34.28;;;17.35;;
63112;SDS011;49206;48.020;21.378;2022-10-31T02:47:22;35.13;;;16.63;;
63112;SDS011;49206;48.020;21.378;2022-10-31T02:48:29;41.42;;;17.88;;
63112;SDS011;49206;48.020;21.378;2022-10-31T02:49:38;36.50;;;16.73;;
63112;SDS011;49206;48.020;21.378;2022-10-31T02:50:47;34.97;;;16.65;;
63112;SDS011;49206;48.020;21.378;2022-10-31T02:51:56;31.65;;;15.60;;
63112;SDS011;49206;48.020;21.378;2022-10-31T02:52:58;37.47;;;16.58;;
63112;SDS011;49206;48.020;21.378;2022-10-31T02:54:01;41.55;;;18.30;;
63112;SDS011;49206;48.020;21.378;2022-10-31T02:55:39;34.75;;;15.38;;
63112;SDS011;49206;48.020;21.378;2022-10-31T02:56:34;38.08;;;16.85;;
63112;SDS011;49206;48.020;21.378;2022-10-31T02:57:36;39.70;;;17.17;;
63112;SDS011;49206;48.020;21.378;2022-10-31T02:58:46;38.40;;;18.17;;
63112;SDS011;49206;48.020;21.378;2022-10-31T02:59:54;37.42;;;16.50;;
63112;SDS011;49206;48.020;21.378;2022-10-31T03:06:30;32.22;;;14.90;;
63112;SDS011;49206;48.020;21.378;2022-10-31T03:09:01;40.20;;;16.13;;
63112;SDS011;49206;48.020;21.378;2022-10-31T03:10:35;33.65;;;15.10;;
63112;SDS011;49206;48.020;21.378;2022-10-31T03:11:45;33.92;;;16.27;;
63112;SDS011;49206;48.020;21.378;2022-10-31T03:13:01;41.22;;;16.55;;
63112;SDS011;49206;48.020;21.378;2022-10-31T03:14:09;37.25;;;16.27;;
63112;SDS011;49206;48.020;21.378;2022-10-31T03:15:28;34.17;;;15.38;;
63112;SDS011;49206;48.020;21.378;2022-10-31T03:20:26;41.38;;;16.25;;
63112;SDS011;49206;48.020;21.378;2022-10-31T03:21:39;35.72;;;15.43;;
63112;SDS011;49206;48.020;21.378;2022-10-31T03:22:46;33.13;;;15.45;;
63112;SDS011;49206;48.020;21.378;2022-10-31T03:23:49;33.33;;;16.15;;
63112;SDS011;49206;48.020;21.378;2022-10-31T03:24:55;39.50;;;17.17;;
63112;SDS011;49206;48.020;21.378;2022-10-31T03:26:00;36.30;;;16.35;;
63112;SDS011;49206;48.020;21.378;2022-10-31T03:27:06;35.38;;;15.80;;
63112;SDS011;49206;48.020;21.378;2022-10-31T03:28:12;37.58;;;17.42;;
63112;SDS011;49206;48.020;21.378;2022-10-31T03:29:18;39.88;;;16.38;;
63112;SDS011;49206;48.020;21.378;2022-10-31T03:30:24;35.28;;;16.85;;
63112;SDS011;49206;48.020;21.378;2022-10-31T03:31:34;34.72;;;15.60;;
63112;SDS011;49206;48.020;21.378;2022-10-31T03:32:42;34.70;;;16.05;;
63112;SDS011;49206;48.020;21.378;2022-10-31T03:33:48;36.15;;;16.65;;
63112;SDS011;49206;48.020;21.378;2022-10-31T03:34:53;32.33;;;16.58;;
63112;SDS011;49206;48.020;21.378;2022-10-31T03:35:59;34.30;;;16.25;;
63112;SDS011;49206;48.020;21.378;2022-10-31T03:37:05;35.13;;;16.75;;
63112;SDS011;49206;48.020;21.378;2022-10-31T03:38:11;38.88;;;16.40;;
63112;SDS011;49206;48.020;21.378;2022-10-31T03:39:15;41.55;;;15.85;;
63112;SDS011;49206;48.020;21.378;2022-10-31T03:40:21;34.95;;;15.57;;
63112;SDS011;49206;48.020;21.378;2022-10-31T03:41:29;36.05;;;15.65;;
63112;SDS011;49206;48.020;21.378;2022-10-31T03:42:37;36.20;;;15.57;;
63112;SDS011;49206;48.020;21.378;2022-10-31T03:43:45;32.53;;;14.88;;
63112;SDS011;49206;48.020;21.378;2022-10-31T03:46:15;39.88;;;16.85;;
63112;SDS011;49206;48.020;21.378;2022-10-31T03:47:17;37.83;;;16.48;;
63112;SDS011;49206;48.020;21.378;2022-10-31T03:48:22;34.75;;;16.35;;
63112;SDS011;49206;48.020;21.378;2022-10-31T03:49:27;34.83;;;15.45;;
63112;SDS011;49206;48.020;21.378;2022-10-31T03:50:38;34.88;;;16.05;;
63112;SDS011;49206;48.020;21.378;2022-10-31T03:51:50;33.90;;;16.75;;
63112;SDS011;49206;48.020;21.378;2022-10-31T03:53:00;39.25;;;16.23;;
63112;SDS011;49206;48.020;21.378;2022-10-31T03:55:22;40.10;;;17.33;;
63112;SDS011;49206;48.020;21.378;2022-10-31T03:59:12;38.33;;;16.30;;
63112;SDS011;49206;48.020;21.378;2022-10-31T04:00:20;36.60;;;16.40;;
63112;SDS011;49206;48.020;21.378;2022-10-31T04:01:25;39.03;;;15.90;;
63112;SDS011;49206;48.020;21.378;2022-10-31T04:02:33;38.00;;;15.90;;
63112;SDS011;49206;48.020;21.378;2022-10-31T04:03:40;35.85;;;16.67;;
63112;SDS011;49206;48.020;21.378;2022-10-31T04:04:45;37.40;;;16.95;;
63112;SDS011;49206;48.020;21.378;2022-10-31T04:05:51;33.38;;;15.93;;
63112;SDS011;49206;48.020;21.378;2022-10-31T04:06:57;36.67;;;16.05;;
63112;SDS011;49206;48.020;21.378;2022-10-31T04:08:03;40.88;;;17.33;;
63112;SDS011;49206;48.020;21.378;2022-10-31T04:09:09;36.22;;;16.67;;
63112;SDS011;49206;48.020;21.378;2022-10-31T04:10:13;34.95;;;15.82;;
63112;SDS011;49206;48.020;21.378;2022-10-31T04:11:18;38.90;;;16.48;;
63112;SDS011;49206;48.020;21.378;2022-10-31T04:12:45;34.30;;;17.58;;
63112;SDS011;49206;48.020;21.378;2022-10-31T04:13:59;34.85;;;15.57;;
63112;SDS011;49206;48.020;21.378;2022-10-31T04:15:04;42.67;;;17.17;;
63112;SDS011;49206;48.020;21.378;2022-10-31T04:16:10;38.85;;;16.10;;
63112;SDS011;49206;48.020;21.378;2022-10-31T04:17:19;41.13;;;18.35;;
63112;SDS011;49206;48.020;21.378;2022-10-31T04:18:25;34.20;;;16.63;;
63112;SDS011;49206;48.020;21.378;2022-10-31T04:19:27;41.08;;;18.00;;
63112;SDS011;49206;48.020;21.378;2022-10-31T04:20:31;41.97;;;18.23;;
63112;SDS011;49206;48.020;21.378;2022-10-31T04:21:39;41.47;;;18.35;;
63112;SDS011;49206;48.020;21.378;2022-10-31T04:22:41;43.67;;;19.17;;
63112;SDS011;49206;48.020;21.378;2022-10-31T04:23:44;43.58;;;19.02;;
63112;SDS011;49206;48.020;21.378;2022-10-31T04:24:55;49.40;;;20.42;;
63112;SDS011;49206;48.020;21.378;2022-10-31T04:25:57;42.78;;;19.15;;
63112;SDS011;49206;48.020;21.378;2022-10-31T04:26:59;45.45;;;19.67;;
63112;SDS011;49206;48.020;21.378;2022-10-31T04:28:03;53.33;;;19.52;;
63112;SDS011;49206;48.020;21.378;2022-10-31T04:29:06;52.65;;;18.58;;
63112;SDS011;49206;48.020;21.378;2022-10-31T04:30:08;42.75;;;19.05;;
63112;SDS011;49206;48.020;21.378;2022-10-31T04:31:15;49.13;;;19.58;;
63112;SDS011;49206;48.020;21.378;2022-10-31T04:32:20;42.42;;;18.48;;
63112;SDS011;49206;48.020;21.378;2022-10-31T04:33:22;44.65;;;18.38;;
63112;SDS011;49206;48.020;21.378;2022-10-31T04:34:24;45.22;;;19.35;;
63112;SDS011;49206;48.020;21.378;2022-10-31T04:35:36;45.55;;;18.42;;
63112;SDS011;49206;48.020;21.378;2022-10-31T04:36:39;41.10;;;19.27;;
63112;SDS011;49206;48.020;21.378;2022-10-31T04:37:42;46.42;;;18.50;;
63112;SDS011;49206;48.020;21.378;2022-10-31T04:38:44;42.90;;;17.85;;
63112;SDS011;49206;48.020;21.378;2022-10-31T04:40:19;39.45;;;17.80;;
63112;SDS011;49206;48.020;21.378;2022-10-31T04:41:21;42.55;;;17.58;;
63112;SDS011;49206;48.020;21.378;2022-10-31T04:42:46;40.17;;;18.58;;
63112;SDS011;49206;48.020;21.378;2022-10-31T04:43:49;43.10;;;18.67;;
63112;SDS011;49206;48.020;21.378;2022-10-31T04:44:51;44.70;;;18.40;;
63112;SDS011;49206;48.020;21.378;2022-10-31T04:46:13;39.47;;;18.48;;
63112;SDS011;49206;48.020;21.378;2022-10-31T04:47:16;43.55;;;18.13;;
63112;SDS011;49206;48.020;21.378;2022-10-31T04:48:18;43.33;;;17.80;;
63112;SDS011;49206;48.020;21.378;2022-10-31T04:49:21;46.45;;;19.25;;
63112;SDS011;49206;48.020;21.378;2022-10-31T04:50:23;43.83;;;19.60;;
63112;SDS011;49206;48.020;21.378;2022-10-31T04:51:26;45.83;;;18.02;;
63112;SDS011;49206;48.020;21.378;2022-10-31T04:52:29;42.10;;;19.10;;
63112;SDS011;49206;48.020;21.378;2022-10-31T04:53:31;43.47;;;18.33;;
63112;SDS011;49206;48.020;21.378;2022-10-31T04:55:09;47.90;;;20.40;;
63112;SDS011;49206;48.020;21.378;2022-10-31T04:56:18;49.25;;;20.52;;
63112;SDS011;49206;48.020;21.378;2022-10-31T04:57:26;45.35;;;18.42;;
63112;SDS011;49206;48.020;21.378;2022-10-31T04:58:29;47.95;;;20.15;;
63112;SDS011;49206;48.020;21.378;2022-10-31T04:59:32;44.03;;;19.13;;
63112;SDS011;49206;48.020;21.378;2022-10-31T05:00:35;48.80;;;19.13;;
63112;SDS011;49206;48.020;21.378;2022-10-31T05:01:38;48.85;;;19.80;;
63112;SDS011;49206;48.020;21.378;2022-10-31T05:02:44;44.80;;;19.33;;
63112;SDS011;49206;48.020;21.378;2022-10-31T05:03:47;47.28;;;21.40;;
63112;SDS011;49206;48.020;21.378;2022-10-31T05:04:51;42.90;;;20.08;;
63112;SDS011;49206;48.020;21.378;2022-10-31T05:05:53;46.95;;;20.20;;
63112;SDS011;49206;48.020;21.378;2022-10-31T05:06:56;43.90;;;20.77;;
63112;SDS011;49206;48.020;21.378;2022-10-31T05:07:59;50.40;;;20.38;;
63112;SDS011;49206;48.020;21.378;2022-10-31T05:09:04;43.13;;;19.77;;
63112;SDS011;49206;48.020;21.378;2022-10-31T05:10:06;49.40;;;21.15;;
63112;SDS011;49206;48.020;21.378;2022-10-31T05:11:09;47.30;;;19.40;;
63112;SDS011;49206;48.020;21.378;2022-10-31T05:12:12;49.25;;;19.67;;
63112;SDS011;49206;48.020;21.378;2022-10-31T05:13:41;39.72;;;19.15;;
63112;SDS011;49206;48.020;21.378;2022-10-31T05:14:46;49.95;;;20.15;;
63112;SDS011;49206;48.020;21.378;2022-10-31T05:16:08;44.22;;;18.92;;
63112;SDS011;49206;48.020;21.378;2022-10-31T05:17:36;47.60;;;19.85;;
63112;SDS011;49206;48.020;21.378;2022-10-31T05:18:58;44.45;;;18.52;;
63112;SDS011;49206;48.020;21.378;2022-10-31T05:20:31;49.35;;;20.60;;
63112;SDS011;49206;48.020;21.378;2022-10-31T05:21:57;44.83;;;18.92;;
63112;SDS011;49206;48.020;21.378;2022-10-31T05:23:00;42.90;;;20.02;;
63112;SDS011;49206;48.020;21.378;2022-10-31T05:24:02;41.38;;;19.42;;
63112;SDS011;49206;48.020;21.378;2022-10-31T05:25:07;47.60;;;19.73;;
63112;SDS011;49206;48.020;21.378;2022-10-31T05:26:10;47.15;;;20.33;;
63112;SDS011;49206;48.020;21.378;2022-10-31T05:27:13;49.67;;;20.50;;
63112;SDS011;49206;48.020;21.378;2022-10-31T05:28:16;43.28;;;19.83;;
63112;SDS011;49206;48.020;21.378;2022-10-31T05:29:19;47.15;;;21.92;;
63112;SDS011;49206;48.020;21.378;2022-10-31T05:30:23;46.33;;;18.88;;
63112;SDS011;49206;48.020;21.378;2022-10-31T05:31:28;44.80;;;20.40;;
63112;SDS011;49206;48.020;21.378;2022-10-31T05:32:44;43.80;;;18.77;;
63112;SDS011;49206;48.020;21.378;2022-10-31T05:34:17;49.85;;;19.40;;
63112;SDS011;49206;48.020;21.378;2022-10-31T05:35:44;36.95;;;17.55;;
63112;SDS011;49206;48.020;21.378;2022-10-31T05:36:59;41.97;;;18.67;;
63112;SDS011;49206;48.020;21.378;2022-10-31T05:38:01;42.10;;;18.77;;
63112;SDS011;49206;48.020;21.378;2022-10-31T05:39:05;43.45;;;18.85;;
63112;SDS011;49206;48.020;21.378;2022-10-31T05:40:16;40.88;;;19.27;;
63112;SDS011;49206;48.020;21.378;2022-10-31T05:41:21;46.88;;;19.58;;
63112;SDS011;49206;48.020;21.378;2022-10-31T05:42:24;47.65;;;19.08;;
63112;SDS011;49206;48.020;21.378;2022-10-31T05:43:27;42.40;;;18.83;;
63112;SDS011;49206;48.020;21.378;2022-10-31T05:44:34;44.85;;;18.23;;
63112;SDS011;49206;48.020;21.378;2022-10-31T05:45:59;44.28;;;18.60;;
63112;SDS011;49206;48.020;21.378;2022-10-31T05:47:25;47.03;;;19.45;;
63112;SDS011;49206;48.020;21.378;2022-10-31T05:49:03;43.47;;;19.25;;
63112;SDS011;49206;48.020;21.378;2022-10-31T05:54:03;42.80;;;16.80;;
63112;SDS011;49206;48.020;21.378;2022-10-31T05:56:12;49.85;;;21.10;;
63112;SDS011;49206;48.020;21.378;2022-10-31T05:57:17;46.05;;;22.52;;
63112;SDS011;49206;48.020;21.378;2022-10-31T05:58:20;57.00;;;23.23;;
63112;SDS011;49206;48.020;21.378;2022-10-31T05:59:28;58.72;;;25.13;;
63112;SDS011;49206;48.020;21.378;2022-10-31T06:01:41;52.85;;;23.60;;
63112;SDS011;49206;48.020;21.378;2022-10-31T06:03:10;54.78;;;23.05;;
63112;SDS011;49206;48.020;21.378;2022-10-31T06:04:34;50.20;;;22.30;;
63112;SDS011;49206;48.020;21.378;2022-10-31T06:05:37;49.45;;;22.08;;
63112;SDS011;49206;48.020;21.378;2022-10-31T06:06:41;45.72;;;22.42;;
63112;SDS011;49206;48.020;21.378;2022-10-31T06:10:08;50.08;;;20.35;;
63112;SDS011;49206;48.020;21.378;2022-10-31T06:11:15;44.85;;;20.75;;
63112;SDS011;49206;48.020;21.378;2022-10-31T06:12:35;45.33;;;19.92;;
63112;SDS011;49206;48.020;21.378;2022-10-31T06:13:56;40.58;;;18.30;;
63112;SDS011;49206;48.020;21.378;2022-10-31T14:31:33;27.58;;;18.15;;
63112;SDS011;49206;48.020;21.378;2022-10-31T14:32:41;26.17;;;18.63;;
63112;SDS011;49206;48.020;21.378;2022-10-31T14:33:45;24.63;;;17.83;;
63112;SDS011;49206;48.020;21.378;2022-10-31T14:39:36;25.58;;;12.75;;
63112;SDS011;49206;48.020;21.378;2022-10-31T14:51:01;22.90;;;10.95;;
63112;SDS011;49206;48.020;21.378;2022-10-31T14:52:11;20.70;;;11.88;;
63112;SDS011;49206;48.020;21.378;2022-10-31T14:53:18;21.83;;;12.05;;
63112;SDS011;49206;48.020;21.378;2022-10-31T14:54:36;18.70;;;10.02;;
63112;SDS011;49206;48.020;21.378;2022-10-31T14:55:43;21.75;;;10.60;;
63112;SDS011;49206;48.020;21.378;2022-10-31T14:56:53;19.08;;;10.70;;
63112;SDS011;49206;48.020;21.378;2022-10-31T14:58:17;23.45;;;15.88;;
63112;SDS011;49206;48.020;21.378;2022-10-31T14:59:26;20.20;;;14.07;;
63112;SDS011;49206;48.020;21.378;2022-10-31T15:00:35;18.98;;;12.35;;
63112;SDS011;49206;48.020;21.378;2022-10-31T15:01:59;23.50;;;13.27;;
63112;SDS011;49206;48.020;21.378;2022-10-31T15:05:09;21.50;;;12.88;;
63112;SDS011;49206;48.020;21.378;2022-10-31T15:06:18;21.25;;;13.68;;
63112;SDS011;49206;48.020;21.378;2022-10-31T15:07:24;22.73;;;13.48;;
63112;SDS011;49206;48.020;21.378;2022-10-31T15:09:54;26.02;;;16.20;;
63112;SDS011;49206;48.020;21.378;2022-10-31T15:11:09;21.75;;;13.52;;
63112;SDS011;49206;48.020;21.378;2022-10-31T15:12:24;22.65;;;13.27;;
63112;SDS011;49206;48.020;21.378;2022-10-31T15:13:31;25.15;;;15.35;;
63112;SDS011;49206;48.020;21.378;2022-10-31T15:14:33;24.02;;;15.25;;
63112;SDS011;49206;48.020;21.378;2022-10-31T15:15:36;26.25;;;15.55;;
63112;SDS011;49206;48.020;21.378;2022-10-31T15:16:43;21.00;;;14.52;;
63112;SDS011;49206;48.020;21.378;2022-10-31T15:17:48;24.90;;;14.88;;
63112;SDS011;49206;48.020;21.378;2022-10-31T15:19:03;26.67;;;15.48;;
63112;SDS011;49206;48.020;21.378;2022-10-31T15:20:10;29.67;;;17.92;;
63112;SDS011;49206;48.020;21.378;2022-10-31T15:21:15;38.35;;;22.10;;
63112;SDS011;49206;48.020;21.378;2022-10-31T15:22:19;31.08;;;19.70;;
63112;SDS011;49206;48.020;21.378;2022-10-31T15:23:28;31.45;;;17.17;;
63112;SDS011;49206;48.020;21.378;2022-10-31T15:24:35;24.92;;;16.50;;
63112;SDS011;49206;48.020;21.378;2022-10-31T15:25:39;25.75;;;14.13;;
63112;SDS011;49206;48.020;21.378;2022-10-31T15:26:50;25.25;;;13.18;;
63112;SDS011;49206;48.020;21.378;2022-10-31T15:27:58;26.50;;;13.00;;
63112;SDS011;49206;48.020;21.378;2022-10-31T15:29:02;27.85;;;15.18;;
63112;SDS011;49206;48.020;21.378;2022-10-31T15:30:17;22.38;;;12.15;;
63112;SDS011;49206;48.020;21.378;2022-10-31T15:31:25;22.23;;;11.63;;
63112;SDS011;49206;48.020;21.378;2022-10-31T15:32:32;23.33;;;13.18;;
63112;SDS011;49206;48.020;21.378;2022-10-31T15:33:39;22.00;;;12.82;;
63112;SDS011;49206;48.020;21.378;2022-10-31T15:34:50;20.95;;;11.73;;
63112;SDS011;49206;48.020;21.378;2022-10-31T15:35:57;25.88;;;14.35;;
63112;SDS011;49206;48.020;21.378;2022-10-31T15:37:01;23.75;;;14.95;;
63112;SDS011;49206;48.020;21.378;2022-10-31T15:38:04;29.10;;;14.93;;
63112;SDS011;49206;48.020;21.378;2022-10-31T15:39:09;22.13;;;12.68;;
63112;SDS011;49206;48.020;21.378;2022-10-31T15:40:17;25.13;;;18.00;;
63112;SDS011;49206;48.020;21.378;2022-10-31T15:42:35;21.95;;;12.60;;
63112;SDS011;49206;48.020;21.378;2022-10-31T15:45:35;20.48;;;11.38;;
63112;SDS011;49206;48.020;21.378;2022-10-31T15:46:38;20.05;;;11.43;;
63112;SDS011;49206;48.020;21.378;2022-10-31T15:48:59;19.48;;;11.57;;
63112;SDS011;49206;48.020;21.378;2022-10-31T15:50:04;20.05;;;12.43;;